Aviation Digital Data Service (ADDS)

Output produced by METARs form (1241 UTC 22 February 2018)
found at http://www.aviationweather.gov/adds/metars/
 
LYPG 221230Z VRB02KT 9999 FEW030 SCT033 BKN080 13/06 Q1007 NOSIG
TAF LYPG 221100Z 2212/2312 16005KT 9999 SCT030 BKN080 TX14/2213Z TN06/2305Z 
     TEMPO 2218/2308 3000 BR 
     PROB40 
     TEMPO 2222/2306 0600 FG
       
LYTV 221230Z 17009KT 140V230 9999 FEW040 15/07 Q1007 NOSIG
TAF LYTV 221100Z 2212/2312 12008KT 9999 BKN033 TX14/2212Z TN07/2304 
     TEMPO 2221/2312 5000 RA